createdAt,value
2018-05-31T00:01:25.969Z,24.30
2018-05-31T00:03:53.393Z,16.70
2018-05-31T00:06:21.720Z,26.05
2018-05-31T00:08:49.139Z,19.33
2018-05-31T00:11:16.568Z,20.65
2018-05-31T00:13:43.984Z,25.05
2018-05-31T00:16:11.413Z,25.92
2018-05-31T00:18:38.832Z,25.77
2018-05-31T00:21:06.255Z,18.45
2018-05-31T00:23:33.672Z,18.98
2018-05-31T00:26:01.097Z,21.00
2018-05-31T00:28:28.523Z,22.17
2018-05-31T00:30:55.957Z,20.73
2018-05-31T00:33:23.372Z,20.62
2018-05-31T00:35:50.806Z,20.15
2018-05-31T00:38:18.229Z,18.30
2018-05-31T00:40:45.651Z,17.85
2018-05-31T00:43:13.068Z,21.40
2018-05-31T00:45:40.501Z,27.27
2018-05-31T00:48:07.925Z,27.02
2018-05-31T00:50:35.353Z,20.35
2018-05-31T00:53:02.772Z,21.65
2018-05-31T00:55:41.989Z,21.42
2018-05-31T00:58:09.404Z,19.40
2018-05-31T01:00:36.823Z,26.02
2018-05-31T01:03:04.240Z,20.30
2018-05-31T01:05:31.675Z,23.77
2018-05-31T01:07:59.087Z,23.77
2018-05-31T01:10:26.517Z,18.87
2018-05-31T01:12:53.943Z,30.15
2018-05-31T01:15:21.368Z,25.30
2018-05-31T01:17:48.780Z,22.15
2018-05-31T01:20:16.206Z,25.60
2018-05-31T01:22:43.624Z,21.17
2018-05-31T01:25:11.049Z,24.00
2018-05-31T01:27:38.471Z,21.85
2018-05-31T01:30:05.900Z,19.27
2018-05-31T01:32:33.312Z,19.37
2018-05-31T01:35:00.724Z,18.52
2018-05-31T01:37:28.147Z,21.02
2018-05-31T01:39:55.577Z,24.70
2018-05-31T01:42:22.997Z,23.23
2018-05-31T01:44:50.409Z,19.83
2018-05-31T01:47:17.830Z,23.90
2018-05-31T01:49:45.245Z,23.25
2018-05-31T01:52:12.673Z,23.98
2018-05-31T01:54:40.093Z,21.62
2018-05-31T01:57:07.526Z,19.35
2018-05-31T01:59:34.944Z,26.83
2018-05-31T02:02:02.371Z,16.58
2018-05-31T02:04:29.786Z,22.65
2018-05-31T02:06:57.217Z,22.83
2018-05-31T02:09:24.637Z,18.65
2018-05-31T02:11:52.065Z,22.92
2018-05-31T02:14:19.484Z,18.90
2018-05-31T02:16:46.908Z,19.98
2018-05-31T02:19:14.323Z,19.77
2018-05-31T02:21:41.747Z,21.10
2018-05-31T02:24:09.160Z,22.05
2018-05-31T02:26:36.587Z,23.33
2018-05-31T02:29:04.004Z,23.73
2018-05-31T02:31:31.430Z,23.30
2018-05-31T02:33:58.851Z,23.33
2018-05-31T02:36:26.277Z,22.45
2018-05-31T02:38:53.693Z,31.95
2018-05-31T02:41:21.116Z,26.08
2018-05-31T02:43:48.528Z,20.17
2018-05-31T02:46:15.952Z,21.75
2018-05-31T02:48:43.367Z,26.30
2018-05-31T02:51:10.792Z,25.50
2018-05-31T02:53:38.212Z,21.92
2018-05-31T02:56:05.641Z,27.95
2018-05-31T02:58:33.052Z,22.08
2018-05-31T03:01:00.469Z,20.30
2018-05-31T03:03:27.897Z,25.23
2018-05-31T03:05:55.320Z,31.40
2018-05-31T03:08:22.737Z,30.30
2018-05-31T03:10:50.160Z,24.27
2018-05-31T03:13:17.580Z,21.40
2018-05-31T03:15:45.006Z,20.35
2018-05-31T03:18:12.505Z,19.87
2018-05-31T03:20:39.923Z,13.00
2018-05-31T03:23:07.349Z,29.45
2018-05-31T03:25:34.771Z,20.45
2018-05-31T03:28:02.197Z,20.23
2018-05-31T03:30:29.609Z,22.42
2018-05-31T03:32:57.047Z,23.75
2018-05-31T03:35:24.457Z,27.42
2018-05-31T03:37:51.889Z,28.55
2018-05-31T03:40:19.308Z,22.42
2018-05-31T03:42:46.740Z,26.83
2018-05-31T03:45:14.161Z,19.92
2018-05-31T03:47:41.580Z,21.33
2018-05-31T03:50:09.006Z,20.08
2018-05-31T03:52:36.424Z,18.95
2018-05-31T03:55:03.845Z,19.02
2018-05-31T03:57:31.317Z,18.85
2018-05-31T03:59:58.728Z,19.73
2018-05-31T04:02:26.144Z,29.00
2018-05-31T04:04:53.560Z,23.87
2018-05-31T04:07:20.993Z,26.35
2018-05-31T04:09:48.401Z,26.27
2018-05-31T04:12:15.841Z,20.27
2018-05-31T04:14:43.264Z,25.60
2018-05-31T04:17:10.688Z,18.92
2018-05-31T04:19:38.117Z,28.05
2018-05-31T04:22:05.549Z,29.15
2018-05-31T04:24:32.968Z,20.77
2018-05-31T04:27:00.396Z,21.30
2018-05-31T04:29:27.820Z,21.60
2018-05-31T04:31:55.256Z,21.77
2018-05-31T04:34:22.672Z,21.05
2018-05-31T04:36:50.104Z,17.30
2018-05-31T04:39:17.521Z,19.50
2018-05-31T04:41:44.944Z,21.58
2018-05-31T04:44:12.364Z,17.60
2018-05-31T04:46:39.806Z,20.85
2018-05-31T04:49:07.222Z,21.77
2018-05-31T04:51:34.900Z,17.12
2018-05-31T04:54:02.311Z,18.75
2018-05-31T04:56:29.732Z,17.17
2018-05-31T04:58:57.164Z,18.17
2018-05-31T05:01:24.582Z,16.40
2018-05-31T05:03:52.007Z,22.70
2018-05-31T05:06:19.449Z,20.35
2018-05-31T05:08:46.875Z,34.65
2018-05-31T05:11:14.293Z,20.62
2018-05-31T05:13:41.723Z,18.25
2018-05-31T05:16:09.137Z,29.20
2018-05-31T05:18:36.574Z,18.10
2018-05-31T05:21:03.988Z,20.98
2018-05-31T05:23:31.423Z,20.35
2018-05-31T05:25:58.841Z,18.08
2018-05-31T05:28:26.264Z,18.75
2018-05-31T05:30:53.680Z,26.45
2018-05-31T05:33:21.104Z,18.33
2018-05-31T05:35:48.524Z,23.40
2018-05-31T05:38:15.966Z,22.95
2018-05-31T05:40:43.384Z,23.90
2018-05-31T05:43:10.808Z,25.73
2018-05-31T05:45:38.220Z,21.95
2018-05-31T05:48:05.640Z,28.02
2018-05-31T05:50:33.052Z,22.85
2018-05-31T05:53:00.476Z,19.95
2018-05-31T05:55:27.894Z,15.60
2018-05-31T05:57:55.319Z,18.85
2018-05-31T06:00:22.735Z,25.40
2018-05-31T06:02:50.155Z,27.77
2018-05-31T06:05:17.572Z,31.62
2018-05-31T06:07:45.000Z,21.80
2018-05-31T06:10:12.429Z,18.83
2018-05-31T06:12:39.832Z,34.28
2018-05-31T06:15:07.252Z,25.50
2018-05-31T06:17:34.669Z,27.27
2018-05-31T06:20:02.103Z,32.90
2018-05-31T06:22:29.530Z,26.12
2018-05-31T06:24:56.960Z,23.27
2018-05-31T06:27:24.371Z,28.75
2018-05-31T06:29:51.809Z,29.83
2018-05-31T06:32:19.224Z,37.10
2018-05-31T06:34:46.652Z,22.52
2018-05-31T06:37:14.147Z,37.13
2018-05-31T06:39:41.516Z,32.45
2018-05-31T06:42:08.937Z,29.12
2018-05-31T06:44:36.365Z,28.50
2018-05-31T06:47:03.781Z,39.92
2018-05-31T06:49:31.215Z,31.67
2018-05-31T06:51:58.629Z,35.10
2018-05-31T06:54:26.084Z,34.33
2018-05-31T06:56:53.469Z,39.60
2018-05-31T06:59:20.901Z,46.53
2018-05-31T07:01:48.329Z,46.45
2018-05-31T07:04:15.749Z,42.40
2018-05-31T07:06:43.172Z,41.70
2018-05-31T07:09:10.598Z,49.00
2018-05-31T07:11:38.011Z,34.85
2018-05-31T07:14:05.424Z,54.00
2018-05-31T07:16:32.857Z,53.33
2018-05-31T07:19:00.281Z,58.90
2018-05-31T07:21:27.707Z,70.75
2018-05-31T07:23:55.129Z,54.22
2018-05-31T07:26:22.553Z,69.43
2018-05-31T07:28:49.976Z,55.42
2018-05-31T07:31:17.400Z,43.10
2018-05-31T07:33:44.830Z,44.92
2018-05-31T07:36:12.287Z,59.10
2018-05-31T07:38:39.689Z,56.42
2018-05-31T07:41:07.103Z,43.80
2018-05-31T07:43:34.520Z,50.65
2018-05-31T07:46:01.937Z,49.75
2018-05-31T07:48:29.353Z,50.03
2018-05-31T07:50:56.781Z,56.22
2018-05-31T07:53:24.192Z,41.33
2018-05-31T07:55:51.628Z,64.82
2018-05-31T07:58:19.062Z,53.13
2018-05-31T08:00:46.465Z,62.62
2018-05-31T08:03:13.899Z,48.45
2018-05-31T08:05:41.348Z,53.00
2018-05-31T08:08:08.748Z,48.30
2018-05-31T08:10:36.176Z,43.72
2018-05-31T08:13:03.596Z,64.12
2018-05-31T08:15:31.020Z,74.87
2018-05-31T08:17:58.442Z,77.25
2018-05-31T08:20:25.862Z,64.12
2018-05-31T08:22:53.280Z,73.18
2018-05-31T08:25:20.707Z,78.43
2018-05-31T08:27:48.129Z,49.83
2018-05-31T08:30:15.554Z,67.65
2018-05-31T08:32:42.968Z,56.28
2018-05-31T08:35:10.398Z,58.30
2018-05-31T08:37:37.807Z,84.43
2018-05-31T08:40:05.237Z,65.37
2018-05-31T08:42:32.651Z,70.20
2018-05-31T08:45:00.081Z,79.05
2018-05-31T08:47:27.505Z,85.95
2018-05-31T08:49:54.936Z,70.47
2018-05-31T08:52:22.352Z,85.30
2018-05-31T08:54:49.782Z,84.97
2018-05-31T08:57:17.209Z,74.30
2018-05-31T08:59:44.634Z,81.07
2018-05-31T09:02:12.059Z,98.10
2018-05-31T09:04:39.488Z,85.82
2018-05-31T09:07:06.909Z,94.90
2018-05-31T09:09:34.394Z,105.18
2018-05-31T09:12:01.817Z,103.43
2018-05-31T09:14:29.261Z,80.07
2018-05-31T09:16:56.696Z,125.32
2018-05-31T09:19:24.134Z,100.62
2018-05-31T09:21:51.577Z,148.17
2018-05-31T09:24:19.008Z,128.87
2018-05-31T09:26:46.444Z,110.90
2018-05-31T09:29:13.880Z,113.73
2018-05-31T09:31:41.300Z,126.93
2018-05-31T09:34:08.728Z,113.90
2018-05-31T09:36:36.156Z,77.93
2018-05-31T09:39:03.577Z,122.30
2018-05-31T09:41:31.005Z,89.27
2018-05-31T09:43:58.422Z,97.83
2018-05-31T09:46:25.861Z,111.63
2018-05-31T09:48:53.289Z,112.00
2018-05-31T09:51:20.721Z,111.83
2018-05-31T09:53:48.148Z,118.23
2018-05-31T09:56:15.585Z,99.50
2018-05-31T09:58:43.001Z,105.40
2018-05-31T10:01:10.441Z,111.67
2018-05-31T10:03:37.860Z,95.30
2018-05-31T10:06:05.295Z,109.43
2018-05-31T10:08:32.712Z,97.00
2018-05-31T10:11:00.149Z,99.43
2018-05-31T10:13:27.563Z,91.20
2018-05-31T10:15:55.006Z,116.70
2018-05-31T10:18:22.421Z,84.53
2018-05-31T10:20:49.862Z,116.53
2018-05-31T10:23:17.290Z,156.53
2018-05-31T10:25:44.713Z,134.93
2018-05-31T10:28:12.141Z,128.57
2018-05-31T10:30:39.568Z,121.97
2018-05-31T10:33:06.988Z,123.23
2018-05-31T10:35:34.416Z,109.57
2018-05-31T10:38:01.857Z,114.90
2018-05-31T10:40:29.276Z,138.40
2018-05-31T10:42:56.700Z,104.17
2018-05-31T10:45:24.141Z,161.67
2018-05-31T10:47:51.561Z,161.67
2018-05-31T10:50:18.995Z,120.33
2018-05-31T10:52:46.420Z,149.83
2018-05-31T10:55:13.849Z,101.07
2018-05-31T10:57:41.281Z,111.00
2018-05-31T11:00:08.717Z,139.70
2018-05-31T11:02:36.148Z,115.83
2018-05-31T11:05:03.570Z,103.70
2018-05-31T11:07:31.006Z,108.60
2018-05-31T11:09:58.416Z,97.03
2018-05-31T11:12:25.861Z,130.97
2018-05-31T11:14:53.303Z,108.93
2018-05-31T11:17:20.712Z,110.83
2018-05-31T11:19:48.132Z,144.43
2018-05-31T11:22:15.569Z,138.40
2018-05-31T11:24:42.988Z,121.83
2018-05-31T11:27:10.427Z,118.77
2018-05-31T11:29:37.835Z,87.13
2018-05-31T11:32:05.279Z,114.97
2018-05-31T11:34:32.680Z,92.87
2018-05-31T11:37:00.108Z,135.00
2018-05-31T11:39:27.536Z,145.43
2018-05-31T11:41:54.972Z,163.23
2018-05-31T11:44:22.388Z,152.57
2018-05-31T11:46:49.821Z,139.93
2018-05-31T11:49:17.256Z,127.57
2018-05-31T11:51:44.680Z,125.17
2018-05-31T11:54:12.105Z,141.67
2018-05-31T11:56:39.541Z,125.93
2018-05-31T11:59:06.975Z,143.77
2018-05-31T12:01:35.237Z,167.27
2018-05-31T12:04:02.669Z,167.33
2018-05-31T12:06:30.124Z,162.40
2018-05-31T12:08:57.527Z,172.33
2018-05-31T12:11:24.987Z,216.00
2018-05-31T12:13:52.409Z,154.87
2018-05-31T12:16:19.840Z,151.20
2018-05-31T12:18:47.260Z,126.23
2018-05-31T12:21:14.701Z,184.47
2018-05-31T12:23:42.123Z,147.47
2018-05-31T12:26:09.551Z,127.30
2018-05-31T12:28:36.976Z,122.97
2018-05-31T12:31:04.400Z,130.97
2018-05-31T12:33:31.824Z,112.73
2018-05-31T12:35:59.269Z,137.60
2018-05-31T12:38:26.707Z,104.37
2018-05-31T12:40:54.137Z,103.70
2018-05-31T12:43:21.564Z,114.37
2018-05-31T12:45:48.972Z,88.60
2018-05-31T12:48:16.400Z,119.13
2018-05-31T12:50:43.831Z,139.93
2018-05-31T12:53:11.255Z,174.70
2018-05-31T12:55:38.678Z,86.37
2018-05-31T12:58:06.116Z,116.50
2018-05-31T13:00:33.536Z,176.60
2018-05-31T13:03:00.989Z,126.17
2018-05-31T13:05:28.564Z,146.10
2018-05-31T13:07:56.020Z,143.03
2018-05-31T13:10:23.441Z,124.77
2018-05-31T13:12:50.872Z,125.27
2018-05-31T13:15:18.302Z,139.90
2018-05-31T13:17:45.731Z,120.00
2018-05-31T13:20:13.160Z,155.17
2018-05-31T13:22:40.589Z,93.20
2018-05-31T13:25:08.018Z,133.03
2018-05-31T13:27:35.458Z,104.43
2018-05-31T13:30:02.881Z,114.23
2018-05-31T13:32:30.311Z,129.33
2018-05-31T13:34:57.735Z,118.23
2018-05-31T13:37:25.177Z,119.93
2018-05-31T13:39:52.604Z,103.27
2018-05-31T13:42:20.032Z,103.97
2018-05-31T13:44:47.469Z,143.67
2018-05-31T13:47:14.904Z,112.20
2018-05-31T13:49:42.329Z,125.33
2018-05-31T13:52:09.760Z,110.33
2018-05-31T13:54:37.223Z,120.50
2018-05-31T13:57:04.652Z,97.10
2018-05-31T13:59:32.076Z,124.30
2018-05-31T14:01:59.503Z,81.20
2018-05-31T14:04:26.918Z,85.97
2018-05-31T14:06:54.335Z,87.90
2018-05-31T14:09:21.755Z,66.80
2018-05-31T14:11:49.168Z,91.90
2018-05-31T14:14:16.580Z,87.63
2018-05-31T14:16:44.008Z,106.50
2018-05-31T14:19:11.424Z,90.40
2018-05-31T14:21:38.843Z,102.87
2018-05-31T14:24:06.265Z,82.00
2018-05-31T14:26:33.687Z,111.07
2018-05-31T14:29:01.115Z,87.63
2018-05-31T14:31:28.534Z,88.03
2018-05-31T14:33:55.960Z,90.33
2018-05-31T14:36:23.369Z,120.83
2018-05-31T14:38:50.804Z,125.67
2018-05-31T14:41:18.225Z,96.57
2018-05-31T14:43:45.662Z,106.00
2018-05-31T14:46:13.081Z,113.70
2018-05-31T14:48:40.508Z,103.50
2018-05-31T14:51:07.930Z,112.17
2018-05-31T14:53:35.361Z,100.33
2018-05-31T14:56:02.786Z,92.37
2018-05-31T14:58:30.213Z,99.90
2018-05-31T15:00:57.631Z,93.77
2018-05-31T15:03:25.048Z,86.43
2018-05-31T15:05:52.469Z,72.83
2018-05-31T15:08:19.901Z,95.47
2018-05-31T15:10:47.309Z,91.30
2018-05-31T15:13:14.742Z,98.90
2018-05-31T15:15:42.175Z,134.53
2018-05-31T15:18:09.597Z,91.17
2018-05-31T15:20:37.024Z,105.57
2018-05-31T15:23:04.448Z,95.00
2018-05-31T15:25:31.867Z,88.57
2018-05-31T15:27:59.280Z,82.23
2018-05-31T15:30:26.792Z,73.30
2018-05-31T15:32:54.216Z,74.90
2018-05-31T15:35:21.634Z,64.90
2018-05-31T15:37:49.055Z,89.47
2018-05-31T15:40:16.472Z,88.53
2018-05-31T15:42:43.913Z,73.07
2018-05-31T15:45:11.328Z,65.93
2018-05-31T15:47:38.768Z,72.70
2018-05-31T15:50:06.197Z,80.97
2018-05-31T15:52:33.623Z,72.53
2018-05-31T15:55:01.052Z,81.75
2018-05-31T15:57:28.481Z,66.53
2018-05-31T15:59:55.908Z,66.12
2018-05-31T16:02:23.332Z,91.00
2018-05-31T16:04:50.777Z,81.18
2018-05-31T16:07:18.220Z,69.12
2018-05-31T16:09:45.650Z,56.97
2018-05-31T16:12:13.072Z,44.60
2018-05-31T16:14:40.508Z,55.67
2018-05-31T16:17:17.856Z,40.95
2018-05-31T16:19:45.408Z,61.37
2018-05-31T16:22:12.833Z,49.97
2018-05-31T16:24:40.265Z,50.10
2018-05-31T16:27:07.696Z,99.28
2018-05-31T16:29:35.144Z,74.60
2018-05-31T16:32:02.560Z,83.68
2018-05-31T16:34:29.990Z,76.80
2018-05-31T16:36:57.408Z,76.60
2018-05-31T16:39:24.843Z,71.53
2018-05-31T16:41:52.368Z,85.60
2018-05-31T16:44:19.792Z,58.25
2018-05-31T16:46:47.274Z,65.80
2018-05-31T16:49:14.735Z,93.07
2018-05-31T16:51:42.220Z,86.47
2018-05-31T16:54:09.648Z,68.25
2018-05-31T16:56:37.072Z,55.92
2018-05-31T16:59:04.559Z,79.28
2018-05-31T17:01:31.979Z,87.50
2018-05-31T17:03:59.396Z,68.10
2018-05-31T17:06:26.817Z,102.00
2018-05-31T17:08:54.282Z,81.95
2018-05-31T17:11:21.699Z,85.85
2018-05-31T17:13:49.187Z,82.53
2018-05-31T17:16:16.609Z,79.72
2018-05-31T17:18:44.037Z,57.30
2018-05-31T17:21:11.553Z,85.60
2018-05-31T17:23:39.012Z,57.38
2018-05-31T17:26:06.436Z,59.70
2018-05-31T17:28:33.865Z,66.00
2018-05-31T17:31:01.279Z,59.70
2018-05-31T17:33:28.703Z,61.22
2018-05-31T17:35:56.186Z,72.95
2018-05-31T17:38:23.603Z,67.30
2018-05-31T17:40:51.102Z,52.00
2018-05-31T17:43:18.503Z,62.78
2018-05-31T17:45:45.929Z,60.42
2018-05-31T17:48:13.340Z,58.30
2018-05-31T17:50:40.768Z,70.47
2018-05-31T17:53:08.197Z,57.50
2018-05-31T17:55:35.639Z,72.40
2018-05-31T17:58:03.048Z,50.50
2018-05-31T18:00:30.469Z,53.35
2018-05-31T18:02:57.895Z,49.85
2018-05-31T18:05:25.315Z,43.65
2018-05-31T18:07:52.747Z,48.83
2018-05-31T18:10:20.170Z,46.95
2018-05-31T18:12:47.589Z,42.45
2018-05-31T18:15:15.025Z,44.00
2018-05-31T18:17:42.437Z,41.03
2018-05-31T18:20:09.875Z,37.80
2018-05-31T18:22:37.289Z,52.90
2018-05-31T18:25:04.713Z,48.03
2018-05-31T18:27:32.176Z,43.20
2018-05-31T18:29:59.561Z,38.58
2018-05-31T18:32:26.975Z,41.53
2018-05-31T18:34:54.409Z,29.45
2018-05-31T18:37:22.700Z,39.78
2018-05-31T18:39:50.184Z,37.53
2018-05-31T18:42:17.624Z,56.88
2018-05-31T18:44:45.128Z,39.50
2018-05-31T18:47:12.563Z,58.42
2018-05-31T18:49:40.039Z,54.70
2018-05-31T18:52:09.380Z,42.03
2018-05-31T18:54:36.799Z,60.35
2018-05-31T18:57:04.888Z,42.42
2018-05-31T18:59:32.321Z,42.42
2018-05-31T19:01:59.737Z,43.85
2018-05-31T19:04:27.156Z,54.88
2018-05-31T19:06:54.593Z,33.28
2018-05-31T19:09:27.574Z,59.10
2018-05-31T19:11:55.021Z,40.00
2018-05-31T19:14:22.437Z,39.25
2018-05-31T19:16:49.869Z,45.08
2018-05-31T19:19:22.851Z,43.42
2018-05-31T19:21:50.296Z,31.75
2018-05-31T19:24:23.465Z,37.60
2018-05-31T19:26:50.905Z,44.05
2018-05-31T19:29:18.350Z,30.70
2018-05-31T19:31:45.757Z,44.15
2018-05-31T19:34:13.176Z,57.97
2018-05-31T19:36:46.245Z,53.90
2018-05-31T19:39:13.669Z,49.83
2018-05-31T19:41:41.095Z,41.70
2018-05-31T19:44:14.221Z,30.70
2018-05-31T19:46:41.649Z,47.33
2018-05-31T19:49:09.072Z,40.80
2018-05-31T19:54:40.761Z,44.30
2018-05-31T19:57:08.188Z,41.75
2018-05-31T20:02:44.395Z,45.67
2018-05-31T20:05:11.816Z,28.62
2018-05-31T20:07:39.277Z,40.40
2018-05-31T20:10:06.659Z,37.33
2018-05-31T20:12:34.089Z,50.30
2018-05-31T20:15:01.533Z,32.95
2018-05-31T20:17:28.943Z,42.47
2018-05-31T20:19:56.357Z,38.50
2018-05-31T20:22:23.797Z,28.65
2018-05-31T20:24:51.232Z,26.08
2018-05-31T20:27:18.656Z,30.12
2018-05-31T20:29:46.075Z,30.00
2018-05-31T20:32:13.504Z,25.33
2018-05-31T20:34:40.924Z,27.30
2018-05-31T20:37:08.347Z,36.25
2018-05-31T20:39:35.761Z,32.80
2018-05-31T20:42:03.184Z,31.08
2018-05-31T20:44:30.613Z,23.25
2018-05-31T20:46:58.032Z,28.05
2018-05-31T20:49:25.486Z,26.55
2018-05-31T20:51:52.882Z,24.85
2018-05-31T20:54:20.313Z,29.92
2018-05-31T20:56:47.737Z,27.27
2018-05-31T20:59:15.158Z,34.15
2018-05-31T21:01:42.580Z,38.17
2018-05-31T21:04:10.001Z,34.85
2018-05-31T21:06:37.436Z,35.55
2018-05-31T21:09:05.557Z,28.23
2018-05-31T21:11:32.981Z,28.48
2018-05-31T21:14:00.392Z,23.02
2018-05-31T21:16:27.816Z,23.67
2018-05-31T21:18:55.233Z,25.88
2018-05-31T21:21:22.672Z,24.48
2018-05-31T21:23:50.085Z,31.92
2018-05-31T21:26:17.516Z,24.73
2018-05-31T21:28:44.931Z,18.83
2018-05-31T21:31:12.357Z,17.42
2018-05-31T21:33:39.772Z,27.67
2018-05-31T21:36:07.200Z,23.40
2018-05-31T21:38:34.613Z,19.60
2018-05-31T21:41:02.055Z,19.15
2018-05-31T21:43:29.482Z,20.55
2018-05-31T21:45:56.892Z,17.20
2018-05-31T21:48:24.320Z,18.87
2018-05-31T21:50:51.737Z,18.70
2018-05-31T21:53:19.179Z,19.70
2018-05-31T21:55:46.591Z,16.85
2018-05-31T21:58:14.017Z,18.40
2018-05-31T22:01:02.136Z,17.98
2018-05-31T22:03:29.562Z,17.12
2018-05-31T22:05:56.997Z,17.90
2018-05-31T22:08:24.419Z,17.87
2018-05-31T22:10:51.832Z,16.95
2018-05-31T22:13:19.260Z,19.85
2018-05-31T22:15:46.676Z,18.83
2018-05-31T22:18:14.101Z,22.73
2018-05-31T22:20:41.508Z,20.08
2018-05-31T22:23:08.936Z,15.45
2018-05-31T22:25:36.357Z,20.08
2018-05-31T22:28:03.776Z,17.83
2018-05-31T22:30:31.200Z,18.17
2018-05-31T22:32:58.633Z,14.25
2018-05-31T22:35:26.045Z,15.75
2018-05-31T22:37:54.364Z,12.25
2018-05-31T22:40:21.777Z,13.93
2018-05-31T22:42:49.209Z,16.05
2018-05-31T22:45:16.630Z,11.32
2018-05-31T22:47:44.056Z,15.55
2018-05-31T22:50:11.471Z,11.93
2018-05-31T22:52:38.906Z,18.15
2018-05-31T22:55:06.312Z,12.00
2018-05-31T22:57:33.745Z,17.37
2018-05-31T23:00:01.161Z,9.57
2018-05-31T23:02:28.585Z,13.40
2018-05-31T23:04:55.999Z,6.95
2018-05-31T23:07:23.424Z,16.95
2018-05-31T23:09:50.845Z,12.23
2018-05-31T23:12:18.289Z,12.60
2018-05-31T23:14:45.694Z,7.45
2018-05-31T23:17:13.117Z,13.68
2018-05-31T23:19:40.540Z,13.25
2018-05-31T23:22:07.986Z,15.20
2018-05-31T23:24:35.405Z,12.20
2018-05-31T23:27:02.825Z,9.85
2018-05-31T23:29:30.264Z,9.40
2018-05-31T23:31:57.692Z,13.05
2018-05-31T23:34:25.112Z,12.82
2018-05-31T23:36:52.521Z,11.00
2018-05-31T23:39:19.946Z,12.10
2018-05-31T23:41:47.365Z,12.05
2018-05-31T23:44:14.791Z,16.55
2018-05-31T23:46:42.212Z,10.07
2018-05-31T23:49:09.645Z,13.32
2018-05-31T23:51:37.053Z,9.02
2018-05-31T23:54:04.506Z,12.60
2018-05-31T23:56:31.920Z,12.90
2018-05-31T23:58:59.347Z,14.68
